sensor_id;sensor_type;location;lat;lon;timestamp;P1;durP1;ratioP1;P2;durP2;ratioP2
32693;SDS011;19084;44.716;10.218;2022-10-17T00:01:25;26.40;;;17.30;;
32693;SDS011;19084;44.716;10.218;2022-10-17T00:03:58;26.48;;;18.38;;
32693;SDS011;19084;44.716;10.218;2022-10-17T00:06:31;24.92;;;18.35;;
32693;SDS011;19084;44.716;10.218;2022-10-17T00:09:03;25.63;;;19.17;;
32693;SDS011;19084;44.716;10.218;2022-10-17T00:11:36;25.50;;;17.98;;
32693;SDS011;19084;44.716;10.218;2022-10-17T00:14:08;26.02;;;18.80;;
32693;SDS011;19084;44.716;10.218;2022-10-17T00:16:41;23.25;;;17.48;;
32693;SDS011;19084;44.716;10.218;2022-10-17T00:19:13;25.77;;;17.23;;
32693;SDS011;19084;44.716;10.218;2022-10-17T00:21:48;23.83;;;17.08;;
32693;SDS011;19084;44.716;10.218;2022-10-17T00:24:21;29.60;;;17.13;;
32693;SDS011;19084;44.716;10.218;2022-10-17T00:26:53;26.23;;;17.05;;
32693;SDS011;19084;44.716;10.218;2022-10-17T00:29:26;23.08;;;16.67;;
32693;SDS011;19084;44.716;10.218;2022-10-17T00:31:58;27.65;;;17.58;;
32693;SDS011;19084;44.716;10.218;2022-10-17T00:34:31;26.55;;;17.17;;
32693;SDS011;19084;44.716;10.218;2022-10-17T00:37:03;27.90;;;18.05;;
32693;SDS011;19084;44.716;10.218;2022-10-17T00:39:36;25.45;;;17.85;;
32693;SDS011;19084;44.716;10.218;2022-10-17T00:42:11;23.30;;;17.02;;
32693;SDS011;19084;44.716;10.218;2022-10-17T00:47:18;26.08;;;18.90;;
32693;SDS011;19084;44.716;10.218;2022-10-17T00:49:52;26.33;;;18.80;;
32693;SDS011;19084;44.716;10.218;2022-10-17T00:52:26;25.73;;;19.00;;
32693;SDS011;19084;44.716;10.218;2022-10-17T00:57:40;25.85;;;19.70;;
32693;SDS011;19084;44.716;10.218;2022-10-17T01:00:16;27.50;;;20.20;;
32693;SDS011;19084;44.716;10.218;2022-10-17T01:02:51;28.30;;;21.02;;
32693;SDS011;19084;44.716;10.218;2022-10-17T01:05:25;28.27;;;20.73;;
32693;SDS011;19084;44.716;10.218;2022-10-17T01:07:59;29.13;;;20.33;;
32693;SDS011;19084;44.716;10.218;2022-10-17T01:10:33;29.25;;;20.77;;
32693;SDS011;19084;44.716;10.218;2022-10-17T01:16:18;32.25;;;21.63;;
32693;SDS011;19084;44.716;10.218;2022-10-17T01:21:51;36.05;;;21.23;;
32693;SDS011;19084;44.716;10.218;2022-10-17T01:24:35;26.15;;;19.17;;
32693;SDS011;19084;44.716;10.218;2022-10-17T01:27:37;29.35;;;19.42;;
32693;SDS011;19084;44.716;10.218;2022-10-17T01:33:06;29.98;;;19.35;;
32693;SDS011;19084;44.716;10.218;2022-10-17T01:35:41;27.85;;;20.00;;
32693;SDS011;19084;44.716;10.218;2022-10-17T01:38:29;25.83;;;18.98;;
32693;SDS011;19084;44.716;10.218;2022-10-17T01:41:11;30.88;;;20.25;;
32693;SDS011;19084;44.716;10.218;2022-10-17T01:43:51;28.50;;;19.85;;
32693;SDS011;19084;44.716;10.218;2022-10-17T01:46:32;26.55;;;19.48;;
32693;SDS011;19084;44.716;10.218;2022-10-17T01:49:10;26.45;;;18.23;;
32693;SDS011;19084;44.716;10.218;2022-10-17T01:51:46;24.83;;;18.92;;
32693;SDS011;19084;44.716;10.218;2022-10-17T01:54:24;27.92;;;18.35;;
32693;SDS011;19084;44.716;10.218;2022-10-17T01:57:04;25.15;;;19.20;;
32693;SDS011;19084;44.716;10.218;2022-10-17T01:59:40;23.95;;;17.83;;
32693;SDS011;19084;44.716;10.218;2022-10-17T02:02:17;26.52;;;20.50;;
32693;SDS011;19084;44.716;10.218;2022-10-17T02:04:53;24.80;;;18.58;;
32693;SDS011;19084;44.716;10.218;2022-10-17T02:07:28;27.10;;;19.58;;
32693;SDS011;19084;44.716;10.218;2022-10-17T02:10:03;27.52;;;19.70;;
32693;SDS011;19084;44.716;10.218;2022-10-17T02:12:48;26.90;;;19.42;;
32693;SDS011;19084;44.716;10.218;2022-10-17T02:21:07;26.20;;;18.27;;
32693;SDS011;19084;44.716;10.218;2022-10-17T02:23:53;24.55;;;17.67;;
32693;SDS011;19084;44.716;10.218;2022-10-17T02:26:41;25.50;;;18.98;;
32693;SDS011;19084;44.716;10.218;2022-10-17T02:29:22;28.80;;;18.60;;
32693;SDS011;19084;44.716;10.218;2022-10-17T02:34:43;25.55;;;17.88;;
32693;SDS011;19084;44.716;10.218;2022-10-17T02:37:21;27.85;;;17.90;;
32693;SDS011;19084;44.716;10.218;2022-10-17T02:39:59;28.35;;;17.58;;
32693;SDS011;19084;44.716;10.218;2022-10-17T02:42:32;26.20;;;18.25;;
32693;SDS011;19084;44.716;10.218;2022-10-17T02:45:07;26.30;;;17.70;;
32693;SDS011;19084;44.716;10.218;2022-10-17T02:50:32;25.15;;;16.48;;
32693;SDS011;19084;44.716;10.218;2022-10-17T02:53:15;25.05;;;16.63;;
32693;SDS011;19084;44.716;10.218;2022-10-17T02:56:03;24.13;;;16.27;;
32693;SDS011;19084;44.716;10.218;2022-10-17T02:58:41;20.38;;;14.82;;
32693;SDS011;19084;44.716;10.218;2022-10-17T03:01:17;22.63;;;15.05;;
32693;SDS011;19084;44.716;10.218;2022-10-17T03:04:02;20.30;;;14.75;;
32693;SDS011;19084;44.716;10.218;2022-10-17T03:06:37;22.00;;;14.70;;
32693;SDS011;19084;44.716;10.218;2022-10-17T03:09:11;17.80;;;13.77;;
32693;SDS011;19084;44.716;10.218;2022-10-17T03:11:45;18.73;;;13.82;;
32693;SDS011;19084;44.716;10.218;2022-10-17T03:14:17;20.88;;;13.65;;
32693;SDS011;19084;44.716;10.218;2022-10-17T03:16:50;17.73;;;13.68;;
32693;SDS011;19084;44.716;10.218;2022-10-17T03:19:23;17.15;;;13.52;;
32693;SDS011;19084;44.716;10.218;2022-10-17T03:21:56;20.15;;;13.90;;
32693;SDS011;19084;44.716;10.218;2022-10-17T03:24:29;19.90;;;14.93;;
32693;SDS011;19084;44.716;10.218;2022-10-17T03:27:02;19.00;;;13.23;;
32693;SDS011;19084;44.716;10.218;2022-10-17T03:29:35;23.92;;;16.30;;
32693;SDS011;19084;44.716;10.218;2022-10-17T03:32:09;26.13;;;17.23;;
32693;SDS011;19084;44.716;10.218;2022-10-17T03:34:43;25.40;;;17.08;;
32693;SDS011;19084;44.716;10.218;2022-10-17T03:37:16;27.00;;;18.67;;
32693;SDS011;19084;44.716;10.218;2022-10-17T03:39:48;24.25;;;17.25;;
32693;SDS011;19084;44.716;10.218;2022-10-17T03:42:22;26.35;;;18.55;;
32693;SDS011;19084;44.716;10.218;2022-10-17T03:44:54;29.88;;;20.08;;
32693;SDS011;19084;44.716;10.218;2022-10-17T03:47:27;25.00;;;18.30;;
32693;SDS011;19084;44.716;10.218;2022-10-17T03:50:01;27.08;;;18.83;;
32693;SDS011;19084;44.716;10.218;2022-10-17T03:52:38;28.50;;;20.65;;
32693;SDS011;19084;44.716;10.218;2022-10-17T03:55:12;30.98;;;21.48;;
32693;SDS011;19084;44.716;10.218;2022-10-17T03:57:45;29.15;;;20.48;;
32693;SDS011;19084;44.716;10.218;2022-10-17T04:00:20;28.65;;;20.20;;
32693;SDS011;19084;44.716;10.218;2022-10-17T04:02:59;29.35;;;21.63;;
32693;SDS011;19084;44.716;10.218;2022-10-17T04:05:31;33.60;;;23.33;;
32693;SDS011;19084;44.716;10.218;2022-10-17T04:08:04;33.42;;;23.42;;
32693;SDS011;19084;44.716;10.218;2022-10-17T04:10:57;35.75;;;24.35;;
32693;SDS011;19084;44.716;10.218;2022-10-17T04:13:32;34.65;;;24.92;;
32693;SDS011;19084;44.716;10.218;2022-10-17T04:16:06;31.48;;;23.85;;
32693;SDS011;19084;44.716;10.218;2022-10-17T04:18:52;35.45;;;25.27;;
32693;SDS011;19084;44.716;10.218;2022-10-17T04:21:29;40.97;;;23.85;;
32693;SDS011;19084;44.716;10.218;2022-10-17T04:24:08;36.70;;;25.05;;
32693;SDS011;19084;44.716;10.218;2022-10-17T04:26:49;38.42;;;24.48;;
32693;SDS011;19084;44.716;10.218;2022-10-17T04:29:23;34.45;;;23.00;;
32693;SDS011;19084;44.716;10.218;2022-10-17T04:32:04;34.70;;;22.40;;
32693;SDS011;19084;44.716;10.218;2022-10-17T04:34:47;28.50;;;20.38;;
32693;SDS011;19084;44.716;10.218;2022-10-17T04:37:23;28.45;;;20.30;;
32693;SDS011;19084;44.716;10.218;2022-10-17T04:42:34;22.45;;;16.13;;
32693;SDS011;19084;44.716;10.218;2022-10-17T04:45:07;21.35;;;15.32;;
32693;SDS011;19084;44.716;10.218;2022-10-17T04:47:41;19.90;;;14.10;;
32693;SDS011;19084;44.716;10.218;2022-10-17T04:50:14;18.77;;;13.45;;
32693;SDS011;19084;44.716;10.218;2022-10-17T04:53:06;18.88;;;11.48;;
32693;SDS011;19084;44.716;10.218;2022-10-17T04:55:39;19.23;;;12.38;;
32693;SDS011;19084;44.716;10.218;2022-10-17T04:58:12;18.73;;;12.93;;
32693;SDS011;19084;44.716;10.218;2022-10-17T05:00:45;18.52;;;12.63;;
32693;SDS011;19084;44.716;10.218;2022-10-17T05:03:25;14.98;;;11.77;;
32693;SDS011;19084;44.716;10.218;2022-10-17T05:06:01;17.52;;;13.20;;
32693;SDS011;19084;44.716;10.218;2022-10-17T05:08:37;19.00;;;12.65;;
32693;SDS011;19084;44.716;10.218;2022-10-17T05:11:14;16.13;;;12.05;;
32693;SDS011;19084;44.716;10.218;2022-10-17T05:14:03;18.48;;;14.60;;
32693;SDS011;19084;44.716;10.218;2022-10-17T05:16:36;23.10;;;13.80;;
32693;SDS011;19084;44.716;10.218;2022-10-17T05:19:09;18.27;;;12.90;;
32693;SDS011;19084;44.716;10.218;2022-10-17T05:21:48;20.67;;;13.43;;
32693;SDS011;19084;44.716;10.218;2022-10-17T05:24:20;17.35;;;12.95;;
32693;SDS011;19084;44.716;10.218;2022-10-17T05:26:53;18.83;;;12.50;;
32693;SDS011;19084;44.716;10.218;2022-10-17T05:29:26;18.40;;;13.55;;
32693;SDS011;19084;44.716;10.218;2022-10-17T05:32:08;18.85;;;13.90;;
32693;SDS011;19084;44.716;10.218;2022-10-17T05:34:41;21.10;;;14.40;;
32693;SDS011;19084;44.716;10.218;2022-10-17T05:37:14;20.27;;;13.55;;
32693;SDS011;19084;44.716;10.218;2022-10-17T05:39:52;21.75;;;14.00;;
32693;SDS011;19084;44.716;10.218;2022-10-17T05:42:25;20.73;;;15.18;;
32693;SDS011;19084;44.716;10.218;2022-10-17T05:45:00;22.73;;;14.75;;
32693;SDS011;19084;44.716;10.218;2022-10-17T05:47:35;19.88;;;14.48;;
32693;SDS011;19084;44.716;10.218;2022-10-17T05:50:08;22.60;;;14.75;;
32693;SDS011;19084;44.716;10.218;2022-10-17T05:53:01;21.10;;;14.88;;
32693;SDS011;19084;44.716;10.218;2022-10-17T05:55:35;19.92;;;13.70;;
32693;SDS011;19084;44.716;10.218;2022-10-17T05:58:08;21.20;;;15.10;;
32693;SDS011;19084;44.716;10.218;2022-10-17T06:01:01;21.70;;;15.23;;
32693;SDS011;19084;44.716;10.218;2022-10-17T06:03:40;22.10;;;14.70;;
32693;SDS011;19084;44.716;10.218;2022-10-17T06:06:13;24.00;;;15.18;;
32693;SDS011;19084;44.716;10.218;2022-10-17T06:08:48;23.70;;;16.23;;
32693;SDS011;19084;44.716;10.218;2022-10-17T06:11:27;24.38;;;16.90;;
32693;SDS011;19084;44.716;10.218;2022-10-17T06:14:00;22.50;;;15.90;;
32693;SDS011;19084;44.716;10.218;2022-10-17T06:16:34;21.02;;;15.00;;
32693;SDS011;19084;44.716;10.218;2022-10-17T06:19:06;23.10;;;16.80;;
32693;SDS011;19084;44.716;10.218;2022-10-17T06:21:39;21.55;;;15.52;;
32693;SDS011;19084;44.716;10.218;2022-10-17T06:24:17;24.77;;;14.43;;
32693;SDS011;19084;44.716;10.218;2022-10-17T06:26:51;20.65;;;14.38;;
32693;SDS011;19084;44.716;10.218;2022-10-17T06:29:25;20.67;;;14.80;;
32693;SDS011;19084;44.716;10.218;2022-10-17T06:31:58;20.35;;;14.52;;
32693;SDS011;19084;44.716;10.218;2022-10-17T06:34:31;19.27;;;13.30;;
32693;SDS011;19084;44.716;10.218;2022-10-17T06:37:04;19.50;;;14.02;;
32693;SDS011;19084;44.716;10.218;2022-10-17T06:39:43;22.10;;;15.75;;
32693;SDS011;19084;44.716;10.218;2022-10-17T06:42:19;22.35;;;15.77;;
32693;SDS011;19084;44.716;10.218;2022-10-17T06:45:07;23.27;;;16.58;;
32693;SDS011;19084;44.716;10.218;2022-10-17T06:47:48;22.90;;;15.27;;
32693;SDS011;19084;44.716;10.218;2022-10-17T06:50:37;23.23;;;16.30;;
32693;SDS011;19084;44.716;10.218;2022-10-17T06:53:16;21.95;;;15.52;;
32693;SDS011;19084;44.716;10.218;2022-10-17T06:55:55;23.55;;;15.63;;
32693;SDS011;19084;44.716;10.218;2022-10-17T06:58:48;22.02;;;16.25;;
32693;SDS011;19084;44.716;10.218;2022-10-17T07:01:29;25.55;;;16.42;;
32693;SDS011;19084;44.716;10.218;2022-10-17T07:04:04;23.92;;;16.42;;
32693;SDS011;19084;44.716;10.218;2022-10-17T07:06:37;21.50;;;16.10;;
32693;SDS011;19084;44.716;10.218;2022-10-17T07:09:19;23.88;;;16.70;;
32693;SDS011;19084;44.716;10.218;2022-10-17T07:11:54;25.97;;;16.93;;
32693;SDS011;19084;44.716;10.218;2022-10-17T07:14:27;24.42;;;17.25;;
32693;SDS011;19084;44.716;10.218;2022-10-17T07:17:03;23.75;;;17.33;;
32693;SDS011;19084;44.716;10.218;2022-10-17T07:19:36;25.88;;;16.45;;
32693;SDS011;19084;44.716;10.218;2022-10-17T07:22:11;23.73;;;16.77;;
32693;SDS011;19084;44.716;10.218;2022-10-17T07:24:48;21.00;;;16.15;;
32693;SDS011;19084;44.716;10.218;2022-10-17T07:27:37;20.00;;;14.68;;
32693;SDS011;19084;44.716;10.218;2022-10-17T07:30:10;20.25;;;15.15;;
32693;SDS011;19084;44.716;10.218;2022-10-17T07:32:51;17.95;;;13.57;;
32693;SDS011;19084;44.716;10.218;2022-10-17T07:35:25;21.52;;;13.30;;
32693;SDS011;19084;44.716;10.218;2022-10-17T07:37:58;19.10;;;12.82;;
32693;SDS011;19084;44.716;10.218;2022-10-17T07:40:31;21.30;;;12.73;;
32693;SDS011;19084;44.716;10.218;2022-10-17T07:43:04;17.85;;;12.93;;
32693;SDS011;19084;44.716;10.218;2022-10-17T07:45:39;16.40;;;12.35;;
32693;SDS011;19084;44.716;10.218;2022-10-17T07:50:46;21.10;;;12.77;;
32693;SDS011;19084;44.716;10.218;2022-10-17T07:53:20;20.50;;;13.18;;
32693;SDS011;19084;44.716;10.218;2022-10-17T07:55:53;20.52;;;12.93;;
32693;SDS011;19084;44.716;10.218;2022-10-17T07:58:26;22.23;;;13.45;;
32693;SDS011;19084;44.716;10.218;2022-10-17T08:01:03;27.38;;;17.83;;
32693;SDS011;19084;44.716;10.218;2022-10-17T08:03:42;20.98;;;15.70;;
32693;SDS011;19084;44.716;10.218;2022-10-17T08:06:16;27.45;;;16.70;;
32693;SDS011;19084;44.716;10.218;2022-10-17T08:08:49;28.75;;;17.83;;
32693;SDS011;19084;44.716;10.218;2022-10-17T08:11:22;26.90;;;16.88;;
32693;SDS011;19084;44.716;10.218;2022-10-17T08:13:56;24.35;;;16.85;;
32693;SDS011;19084;44.716;10.218;2022-10-17T08:16:28;26.52;;;17.42;;
32693;SDS011;19084;44.716;10.218;2022-10-17T08:19:02;27.83;;;17.48;;
32693;SDS011;19084;44.716;10.218;2022-10-17T08:21:35;32.67;;;16.83;;
32693;SDS011;19084;44.716;10.218;2022-10-17T08:24:08;24.75;;;16.90;;
32693;SDS011;19084;44.716;10.218;2022-10-17T08:26:41;29.25;;;17.70;;
32693;SDS011;19084;44.716;10.218;2022-10-17T08:29:16;23.10;;;16.90;;
32693;SDS011;19084;44.716;10.218;2022-10-17T08:31:50;29.85;;;18.65;;
32693;SDS011;19084;44.716;10.218;2022-10-17T08:34:31;23.52;;;17.17;;
32693;SDS011;19084;44.716;10.218;2022-10-17T08:37:04;30.50;;;19.10;;
32693;SDS011;19084;44.716;10.218;2022-10-17T08:39:36;22.30;;;16.67;;
32693;SDS011;19084;44.716;10.218;2022-10-17T08:45:05;28.15;;;18.48;;
32693;SDS011;19084;44.716;10.218;2022-10-17T08:47:51;29.25;;;18.42;;
32693;SDS011;19084;44.716;10.218;2022-10-17T08:50:33;30.67;;;19.15;;
32693;SDS011;19084;44.716;10.218;2022-10-17T08:56:03;32.72;;;18.70;;
32693;SDS011;19084;44.716;10.218;2022-10-17T08:58:50;27.35;;;19.60;;
32693;SDS011;19084;44.716;10.218;2022-10-17T09:01:28;26.05;;;18.75;;
32693;SDS011;19084;44.716;10.218;2022-10-17T09:06:56;30.65;;;18.40;;
32693;SDS011;19084;44.716;10.218;2022-10-17T09:09:41;24.55;;;16.92;;
32693;SDS011;19084;44.716;10.218;2022-10-17T09:15:28;24.80;;;17.08;;
32693;SDS011;19084;44.716;10.218;2022-10-17T09:24:18;24.33;;;15.98;;
32693;SDS011;19084;44.716;10.218;2022-10-17T09:26:57;24.63;;;14.88;;
32693;SDS011;19084;44.716;10.218;2022-10-17T09:29:30;20.02;;;13.85;;
32693;SDS011;19084;44.716;10.218;2022-10-17T09:32:12;22.52;;;13.52;;
32693;SDS011;19084;44.716;10.218;2022-10-17T09:34:50;22.65;;;14.90;;
32693;SDS011;19084;44.716;10.218;2022-10-17T09:37:28;23.02;;;14.38;;
32693;SDS011;19084;44.716;10.218;2022-10-17T09:40:04;24.17;;;15.13;;
32693;SDS011;19084;44.716;10.218;2022-10-17T09:42:40;25.55;;;14.65;;
32693;SDS011;19084;44.716;10.218;2022-10-17T09:45:15;30.63;;;18.05;;
32693;SDS011;19084;44.716;10.218;2022-10-17T09:47:54;27.85;;;18.55;;
32693;SDS011;19084;44.716;10.218;2022-10-17T09:50:36;32.40;;;21.95;;
32693;SDS011;19084;44.716;10.218;2022-10-17T09:53:12;35.03;;;22.27;;
32693;SDS011;19084;44.716;10.218;2022-10-17T09:55:46;31.70;;;22.83;;
32693;SDS011;19084;44.716;10.218;2022-10-17T10:09:36;46.63;;;31.15;;
32693;SDS011;19084;44.716;10.218;2022-10-17T10:18:10;54.17;;;35.05;;
32693;SDS011;19084;44.716;10.218;2022-10-17T10:26:46;45.30;;;33.05;;
32693;SDS011;19084;44.716;10.218;2022-10-17T10:29:30;59.97;;;39.40;;
32693;SDS011;19084;44.716;10.218;2022-10-17T10:34:53;49.67;;;37.88;;
32693;SDS011;19084;44.716;10.218;2022-10-17T10:37:38;58.08;;;40.10;;
32693;SDS011;19084;44.716;10.218;2022-10-17T10:40:16;55.80;;;38.03;;
32693;SDS011;19084;44.716;10.218;2022-10-17T10:42:53;53.45;;;37.00;;
32693;SDS011;19084;44.716;10.218;2022-10-17T10:48:26;59.35;;;39.92;;
32693;SDS011;19084;44.716;10.218;2022-10-17T10:51:11;59.28;;;40.35;;
32693;SDS011;19084;44.716;10.218;2022-10-17T10:53:50;64.18;;;39.55;;
32693;SDS011;19084;44.716;10.218;2022-10-17T10:56:40;55.50;;;39.83;;
32693;SDS011;19084;44.716;10.218;2022-10-17T10:59:29;50.63;;;37.50;;
32693;SDS011;19084;44.716;10.218;2022-10-17T11:02:16;58.83;;;39.47;;
32693;SDS011;19084;44.716;10.218;2022-10-17T11:07:39;50.88;;;38.15;;
32693;SDS011;19084;44.716;10.218;2022-10-17T11:10:30;57.75;;;40.13;;
32693;SDS011;19084;44.716;10.218;2022-10-17T11:13:11;58.97;;;40.97;;
32693;SDS011;19084;44.716;10.218;2022-10-17T11:15:52;54.60;;;38.30;;
32693;SDS011;19084;44.716;10.218;2022-10-17T11:21:29;56.92;;;39.15;;
32693;SDS011;19084;44.716;10.218;2022-10-17T11:24:26;54.28;;;38.25;;
32693;SDS011;19084;44.716;10.218;2022-10-17T11:27:05;60.38;;;39.10;;
32693;SDS011;19084;44.716;10.218;2022-10-17T11:29:40;52.83;;;37.83;;
32693;SDS011;19084;44.716;10.218;2022-10-17T11:32:18;53.03;;;39.75;;
32693;SDS011;19084;44.716;10.218;2022-10-17T11:34:59;56.08;;;40.60;;
32693;SDS011;19084;44.716;10.218;2022-10-17T11:37:39;55.08;;;37.72;;
32693;SDS011;19084;44.716;10.218;2022-10-17T11:40:21;55.67;;;40.10;;
32693;SDS011;19084;44.716;10.218;2022-10-17T11:43:03;52.35;;;38.75;;
32693;SDS011;19084;44.716;10.218;2022-10-17T11:45:45;50.42;;;36.90;;
32693;SDS011;19084;44.716;10.218;2022-10-17T11:48:33;49.78;;;37.03;;
32693;SDS011;19084;44.716;10.218;2022-10-17T11:51:11;55.30;;;38.47;;
32693;SDS011;19084;44.716;10.218;2022-10-17T11:54:10;54.73;;;40.77;;
32693;SDS011;19084;44.716;10.218;2022-10-17T11:57:06;53.78;;;38.13;;
32693;SDS011;19084;44.716;10.218;2022-10-17T11:59:47;53.33;;;38.97;;
32693;SDS011;19084;44.716;10.218;2022-10-17T12:05:51;50.47;;;36.90;;
32693;SDS011;19084;44.716;10.218;2022-10-17T12:11:18;61.38;;;39.63;;
32693;SDS011;19084;44.716;10.218;2022-10-17T12:16:58;56.17;;;40.28;;
32693;SDS011;19084;44.716;10.218;2022-10-17T12:19:34;54.97;;;40.07;;
32693;SDS011;19084;44.716;10.218;2022-10-17T12:22:17;54.63;;;39.70;;
32693;SDS011;19084;44.716;10.218;2022-10-17T12:24:57;52.60;;;36.63;;
32693;SDS011;19084;44.716;10.218;2022-10-17T12:35:40;47.20;;;33.13;;
32693;SDS011;19084;44.716;10.218;2022-10-17T12:40:52;50.40;;;36.83;;
32693;SDS011;19084;44.716;10.218;2022-10-17T12:46:01;51.75;;;37.55;;
32693;SDS011;19084;44.716;10.218;2022-10-17T12:51:12;49.55;;;33.60;;
32693;SDS011;19084;44.716;10.218;2022-10-17T12:54:09;43.78;;;32.45;;
32693;SDS011;19084;44.716;10.218;2022-10-17T12:56:45;43.65;;;30.38;;
32693;SDS011;19084;44.716;10.218;2022-10-17T12:59:23;50.55;;;32.83;;
32693;SDS011;19084;44.716;10.218;2022-10-17T13:01:59;46.45;;;31.90;;
32693;SDS011;19084;44.716;10.218;2022-10-17T13:04:34;43.58;;;30.10;;
32693;SDS011;19084;44.716;10.218;2022-10-17T13:07:17;48.17;;;32.22;;
32693;SDS011;19084;44.716;10.218;2022-10-17T13:09:53;46.40;;;32.42;;
32693;SDS011;19084;44.716;10.218;2022-10-17T13:12:27;43.83;;;33.03;;
32693;SDS011;19084;44.716;10.218;2022-10-17T13:17:39;37.08;;;26.33;;
32693;SDS011;19084;44.716;10.218;2022-10-17T13:20:22;35.78;;;27.13;;
32693;SDS011;19084;44.716;10.218;2022-10-17T13:23:02;36.10;;;26.58;;
32693;SDS011;19084;44.716;10.218;2022-10-17T13:25:36;41.00;;;28.08;;
32693;SDS011;19084;44.716;10.218;2022-10-17T13:28:11;39.38;;;27.80;;
32693;SDS011;19084;44.716;10.218;2022-10-17T13:30:45;40.03;;;27.23;;
32693;SDS011;19084;44.716;10.218;2022-10-17T13:33:30;36.70;;;26.45;;
32693;SDS011;19084;44.716;10.218;2022-10-17T13:36:13;40.75;;;27.58;;
32693;SDS011;19084;44.716;10.218;2022-10-17T13:38:49;39.17;;;26.38;;
32693;SDS011;19084;44.716;10.218;2022-10-17T13:41:25;39.95;;;27.10;;
32693;SDS011;19084;44.716;10.218;2022-10-17T13:44:12;35.30;;;25.55;;
32693;SDS011;19084;44.716;10.218;2022-10-17T13:46:49;31.30;;;23.27;;
32693;SDS011;19084;44.716;10.218;2022-10-17T13:52:15;34.05;;;21.95;;
32693;SDS011;19084;44.716;10.218;2022-10-17T13:54:50;34.20;;;22.63;;
32693;SDS011;19084;44.716;10.218;2022-10-17T13:57:26;33.38;;;23.17;;
32693;SDS011;19084;44.716;10.218;2022-10-17T14:00:05;31.60;;;21.80;;
32693;SDS011;19084;44.716;10.218;2022-10-17T14:02:44;39.05;;;25.10;;
32693;SDS011;19084;44.716;10.218;2022-10-17T14:05:18;32.15;;;22.48;;
32693;SDS011;19084;44.716;10.218;2022-10-17T14:07:55;40.22;;;24.17;;
32693;SDS011;19084;44.716;10.218;2022-10-17T14:13:25;38.55;;;23.98;;
32693;SDS011;19084;44.716;10.218;2022-10-17T14:16:01;35.65;;;24.02;;
32693;SDS011;19084;44.716;10.218;2022-10-17T14:18:35;35.28;;;26.85;;
32693;SDS011;19084;44.716;10.218;2022-10-17T14:21:08;37.92;;;28.60;;
32693;SDS011;19084;44.716;10.218;2022-10-17T14:26:53;34.30;;;24.27;;
32693;SDS011;19084;44.716;10.218;2022-10-17T14:29:31;35.58;;;23.88;;
32693;SDS011;19084;44.716;10.218;2022-10-17T14:32:23;35.92;;;24.17;;
32693;SDS011;19084;44.716;10.218;2022-10-17T14:34:57;35.55;;;23.25;;
32693;SDS011;19084;44.716;10.218;2022-10-17T14:37:51;35.85;;;24.27;;
32693;SDS011;19084;44.716;10.218;2022-10-17T14:40:30;33.80;;;23.98;;
32693;SDS011;19084;44.716;10.218;2022-10-17T14:45:37;32.03;;;22.52;;
32693;SDS011;19084;44.716;10.218;2022-10-17T14:48:13;30.38;;;23.60;;
32693;SDS011;19084;44.716;10.218;2022-10-17T14:53:42;35.13;;;25.30;;
32693;SDS011;19084;44.716;10.218;2022-10-17T14:56:38;36.13;;;25.20;;
32693;SDS011;19084;44.716;10.218;2022-10-17T14:59:13;32.33;;;23.55;;
32693;SDS011;19084;44.716;10.218;2022-10-17T15:02:09;31.58;;;21.83;;
32693;SDS011;19084;44.716;10.218;2022-10-17T15:04:43;32.30;;;21.15;;
32693;SDS011;19084;44.716;10.218;2022-10-17T15:07:16;32.63;;;21.88;;
32693;SDS011;19084;44.716;10.218;2022-10-17T15:09:50;32.38;;;21.25;;
32693;SDS011;19084;44.716;10.218;2022-10-17T15:12:25;28.75;;;20.48;;
32693;SDS011;19084;44.716;10.218;2022-10-17T15:14:58;29.23;;;21.35;;
32693;SDS011;19084;44.716;10.218;2022-10-17T15:17:31;31.60;;;21.70;;
32693;SDS011;19084;44.716;10.218;2022-10-17T15:20:10;32.30;;;22.43;;
32693;SDS011;19084;44.716;10.218;2022-10-17T15:22:51;33.23;;;22.70;;
32693;SDS011;19084;44.716;10.218;2022-10-17T15:25:25;33.97;;;22.85;;
32693;SDS011;19084;44.716;10.218;2022-10-17T15:27:59;31.83;;;22.02;;
32693;SDS011;19084;44.716;10.218;2022-10-17T15:30:33;29.73;;;22.70;;
32693;SDS011;19084;44.716;10.218;2022-10-17T15:33:07;37.70;;;22.92;;
32693;SDS011;19084;44.716;10.218;2022-10-17T15:35:40;31.77;;;21.98;;
32693;SDS011;19084;44.716;10.218;2022-10-17T15:38:14;35.72;;;22.83;;
32693;SDS011;19084;44.716;10.218;2022-10-17T15:40:49;33.65;;;22.52;;
32693;SDS011;19084;44.716;10.218;2022-10-17T15:43:23;35.30;;;23.33;;
32693;SDS011;19084;44.716;10.218;2022-10-17T15:45:56;32.35;;;22.27;;
32693;SDS011;19084;44.716;10.218;2022-10-17T15:51:04;34.67;;;22.70;;
32693;SDS011;19084;44.716;10.218;2022-10-17T15:53:37;34.15;;;23.77;;
32693;SDS011;19084;44.716;10.218;2022-10-17T15:56:17;38.10;;;24.77;;
32693;SDS011;19084;44.716;10.218;2022-10-17T15:58:56;38.58;;;24.50;;
32693;SDS011;19084;44.716;10.218;2022-10-17T16:01:29;31.20;;;21.75;;
32693;SDS011;19084;44.716;10.218;2022-10-17T16:04:04;30.13;;;21.27;;
32693;SDS011;19084;44.716;10.218;2022-10-17T16:06:37;30.38;;;20.35;;
32693;SDS011;19084;44.716;10.218;2022-10-17T16:09:10;23.42;;;18.98;;
32693;SDS011;19084;44.716;10.218;2022-10-17T16:11:45;50.88;;;33.28;;
32693;SDS011;19084;44.716;10.218;2022-10-17T16:17:19;25.20;;;18.38;;
32693;SDS011;19084;44.716;10.218;2022-10-17T16:19:53;23.33;;;17.45;;
32693;SDS011;19084;44.716;10.218;2022-10-17T16:22:27;22.85;;;16.65;;
32693;SDS011;19084;44.716;10.218;2022-10-17T16:25:04;25.08;;;17.27;;
32693;SDS011;19084;44.716;10.218;2022-10-17T16:27:41;24.88;;;16.90;;
32693;SDS011;19084;44.716;10.218;2022-10-17T16:30:16;22.30;;;16.63;;
32693;SDS011;19084;44.716;10.218;2022-10-17T16:33:15;25.48;;;16.38;;
32693;SDS011;19084;44.716;10.218;2022-10-17T16:35:48;23.98;;;16.85;;
32693;SDS011;19084;44.716;10.218;2022-10-17T16:38:21;33.72;;;18.35;;
32693;SDS011;19084;44.716;10.218;2022-10-17T16:40:53;25.23;;;17.25;;
32693;SDS011;19084;44.716;10.218;2022-10-17T16:43:25;26.98;;;16.95;;
32693;SDS011;19084;44.716;10.218;2022-10-17T16:45:59;23.10;;;16.98;;
32693;SDS011;19084;44.716;10.218;2022-10-17T16:48:35;24.90;;;17.00;;
32693;SDS011;19084;44.716;10.218;2022-10-17T16:51:09;24.98;;;17.45;;
32693;SDS011;19084;44.716;10.218;2022-10-17T16:53:43;27.30;;;18.13;;
32693;SDS011;19084;44.716;10.218;2022-10-17T16:56:17;25.30;;;18.10;;
32693;SDS011;19084;44.716;10.218;2022-10-17T16:58:52;24.00;;;17.60;;
32693;SDS011;19084;44.716;10.218;2022-10-17T17:01:25;27.50;;;18.05;;
32693;SDS011;19084;44.716;10.218;2022-10-17T17:04:00;23.88;;;18.52;;
32693;SDS011;19084;44.716;10.218;2022-10-17T17:06:36;27.60;;;16.92;;
32693;SDS011;19084;44.716;10.218;2022-10-17T17:09:08;29.90;;;18.38;;
32693;SDS011;19084;44.716;10.218;2022-10-17T17:11:41;26.38;;;19.13;;
32693;SDS011;19084;44.716;10.218;2022-10-17T17:14:14;26.65;;;19.75;;
32693;SDS011;19084;44.716;10.218;2022-10-17T17:16:47;41.20;;;31.48;;